Current Weather

Mount Vernon

Mount Vernon, Illinois (KMVN)

Report from: Monday, August 15, 2022 5:56 PM CDT
Current time: Monday, August 15, 2022 7:05 PM CDT

Nearby weather
Weather history
Weather forecast

Temperature25.6°C (78.1°F)
Dew point20.0°C (68.0°F)
Winds 3 kts (1.5 m/s, 3.5 mph) North (10°)
Visibility10 mi. (16.1 km)
Clouds Few clouds 3,400 ft. (1,036 m)
Scattered clouds 6,000 ft. (1,829 m)
Altimeter29.99 in.Hg (1016 mB)
Relative humidity71 %
Density altitude1,464 ft. (446 m)
Sea-level pressure101.6 kPa (1016 mB, 29.99 in.Hg)
Remarks Fully automated report
Automated weather observing station with precipitation discriminator
Flight conditions Visual Meteorological Conditions
Raw dataKMVN 152256Z AUTO 01003KT 10SM FEW034 SCT060 26/20 A2999 RMK AO2 SLP156 T02560200
An error has occurred. This application may no longer respond until reloaded. Reload 🗙